sensor_id;sensor_type;location;lat;lon;timestamp;P1;durP1;ratioP1;P2;durP2;ratioP2
39222;SDS011;24936;46.328;11.026;2023-08-08T00:01:15;7.33;;;7.03;;
39222;SDS011;24936;46.328;11.026;2023-08-08T00:03:41;7.47;;;7.17;;
39222;SDS011;24936;46.328;11.026;2023-08-08T00:06:06;10.70;;;10.20;;
39222;SDS011;24936;46.328;11.026;2023-08-08T00:08:32;4.90;;;4.70;;
39222;SDS011;24936;46.328;11.026;2023-08-08T00:10:57;8.03;;;7.73;;
39222;SDS011;24936;46.328;11.026;2023-08-08T00:13:23;17.70;;;16.85;;
39222;SDS011;24936;46.328;11.026;2023-08-08T00:15:48;20.17;;;19.17;;
39222;SDS011;24936;46.328;11.026;2023-08-08T00:18:14;15.90;;;15.13;;
39222;SDS011;24936;46.328;11.026;2023-08-08T00:20:39;13.00;;;12.40;;
39222;SDS011;24936;46.328;11.026;2023-08-08T00:23:05;16.75;;;15.95;;
39222;SDS011;24936;46.328;11.026;2023-08-08T00:25:30;12.67;;;12.10;;
39222;SDS011;24936;46.328;11.026;2023-08-08T00:27:56;13.00;;;12.40;;
39222;SDS011;24936;46.328;11.026;2023-08-08T00:30:21;15.70;;;15.00;;
39222;SDS011;24936;46.328;11.026;2023-08-08T00:32:46;14.03;;;13.43;;
39222;SDS011;24936;46.328;11.026;2023-08-08T00:35:12;15.63;;;14.90;;
39222;SDS011;24936;46.328;11.026;2023-08-08T00:37:37;21.50;;;20.40;;
39222;SDS011;24936;46.328;11.026;2023-08-08T00:40:03;22.47;;;21.33;;
39222;SDS011;24936;46.328;11.026;2023-08-08T00:42:28;23.58;;;22.40;;
39222;SDS011;24936;46.328;11.026;2023-08-08T00:44:54;18.90;;;18.00;;
39222;SDS011;24936;46.328;11.026;2023-08-08T00:47:19;19.03;;;18.13;;
39222;SDS011;24936;46.328;11.026;2023-08-08T00:49:44;15.50;;;14.77;;
39222;SDS011;24936;46.328;11.026;2023-08-08T00:52:13;13.32;;;12.73;;
39222;SDS011;24936;46.328;11.026;2023-08-08T00:54:39;13.82;;;13.18;;
39222;SDS011;24936;46.328;11.026;2023-08-08T00:57:05;11.70;;;11.20;;
39222;SDS011;24936;46.328;11.026;2023-08-08T00:59:31;10.03;;;9.63;;
39222;SDS011;24936;46.328;11.026;2023-08-08T01:01:56;12.70;;;12.10;;
39222;SDS011;24936;46.328;11.026;2023-08-08T01:04:22;12.27;;;11.77;;
39222;SDS011;24936;46.328;11.026;2023-08-08T01:06:54;13.80;;;13.20;;
39222;SDS011;24936;46.328;11.026;2023-08-08T01:09:36;11.85;;;11.30;;
39222;SDS011;24936;46.328;11.026;2023-08-08T01:12:06;12.63;;;12.05;;
39222;SDS011;24936;46.328;11.026;2023-08-08T01:14:36;12.73;;;12.18;;
39222;SDS011;24936;46.328;11.026;2023-08-08T01:17:03;12.88;;;12.27;;
39222;SDS011;24936;46.328;11.026;2023-08-08T01:19:30;10.95;;;10.45;;
39222;SDS011;24936;46.328;11.026;2023-08-08T01:22:02;12.55;;;11.95;;
39222;SDS011;24936;46.328;11.026;2023-08-08T01:24:30;30.40;;;28.75;;
39222;SDS011;24936;46.328;11.026;2023-08-08T01:26:58;24.17;;;22.92;;
39222;SDS011;24936;46.328;11.026;2023-08-08T01:29:25;23.85;;;22.60;;
39222;SDS011;24936;46.328;11.026;2023-08-08T01:31:50;33.97;;;32.15;;
39222;SDS011;24936;46.328;11.026;2023-08-08T01:34:16;31.25;;;29.60;;
39222;SDS011;24936;46.328;11.026;2023-08-08T01:36:46;33.07;;;31.27;;
39222;SDS011;24936;46.328;11.026;2023-08-08T01:39:20;37.08;;;35.08;;
39222;SDS011;24936;46.328;11.026;2023-08-08T01:41:50;27.20;;;25.80;;
39222;SDS011;24936;46.328;11.026;2023-08-08T01:44:17;18.73;;;17.83;;
39222;SDS011;24936;46.328;11.026;2023-08-08T01:46:43;12.80;;;12.20;;
39222;SDS011;24936;46.328;11.026;2023-08-08T01:49:09;23.05;;;21.90;;
39222;SDS011;24936;46.328;11.026;2023-08-08T01:51:34;33.53;;;31.73;;
39222;SDS011;24936;46.328;11.026;2023-08-08T01:54:00;40.53;;;38.33;;
39222;SDS011;24936;46.328;11.026;2023-08-08T01:56:25;38.70;;;36.53;;
39222;SDS011;24936;46.328;11.026;2023-08-08T01:58:51;46.70;;;44.07;;
39222;SDS011;24936;46.328;11.026;2023-08-08T02:01:16;22.83;;;21.63;;
39222;SDS011;24936;46.328;11.026;2023-08-08T02:03:41;17.60;;;16.77;;
39222;SDS011;24936;46.328;11.026;2023-08-08T02:06:07;21.10;;;20.07;;
39222;SDS011;24936;46.328;11.026;2023-08-08T02:08:32;16.47;;;15.67;;
39222;SDS011;24936;46.328;11.026;2023-08-08T02:10:57;17.40;;;16.60;;
39222;SDS011;24936;46.328;11.026;2023-08-08T02:13:23;16.57;;;15.77;;
39222;SDS011;24936;46.328;11.026;2023-08-08T02:15:48;23.20;;;22.00;;
39222;SDS011;24936;46.328;11.026;2023-08-08T02:18:14;21.43;;;20.37;;
39222;SDS011;24936;46.328;11.026;2023-08-08T02:20:39;23.10;;;21.97;;
39222;SDS011;24936;46.328;11.026;2023-08-08T02:23:04;21.70;;;20.60;;
39222;SDS011;24936;46.328;11.026;2023-08-08T02:25:30;18.70;;;17.80;;
39222;SDS011;24936;46.328;11.026;2023-08-08T02:27:56;14.07;;;13.43;;
39222;SDS011;24936;46.328;11.026;2023-08-08T02:30:22;16.90;;;16.10;;
39222;SDS011;24936;46.328;11.026;2023-08-08T02:32:47;13.93;;;13.30;;
39222;SDS011;24936;46.328;11.026;2023-08-08T02:35:13;17.85;;;17.05;;
39222;SDS011;24936;46.328;11.026;2023-08-08T02:37:38;16.20;;;15.45;;
39222;SDS011;24936;46.328;11.026;2023-08-08T02:40:04;16.50;;;15.70;;
39222;SDS011;24936;46.328;11.026;2023-08-08T02:42:31;19.05;;;18.13;;
39222;SDS011;24936;46.328;11.026;2023-08-08T02:44:56;16.80;;;16.00;;
39222;SDS011;24936;46.328;11.026;2023-08-08T02:47:21;24.63;;;23.40;;
39222;SDS011;24936;46.328;11.026;2023-08-08T02:49:47;17.50;;;16.70;;
39222;SDS011;24936;46.328;11.026;2023-08-08T02:52:12;13.40;;;12.77;;
39222;SDS011;24936;46.328;11.026;2023-08-08T02:54:37;12.67;;;12.10;;
39222;SDS011;24936;46.328;11.026;2023-08-08T02:57:03;12.47;;;11.90;;
39222;SDS011;24936;46.328;11.026;2023-08-08T02:59:28;13.70;;;13.07;;
39222;SDS011;24936;46.328;11.026;2023-08-08T03:01:54;9.93;;;9.50;;
39222;SDS011;24936;46.328;11.026;2023-08-08T03:04:19;17.10;;;16.23;;
39222;SDS011;24936;46.328;11.026;2023-08-08T03:06:45;17.23;;;16.40;;
39222;SDS011;24936;46.328;11.026;2023-08-08T03:09:10;13.33;;;12.73;;
39222;SDS011;24936;46.328;11.026;2023-08-08T03:11:36;14.27;;;13.60;;
39222;SDS011;24936;46.328;11.026;2023-08-08T03:16:27;16.35;;;15.60;;
39222;SDS011;24936;46.328;11.026;2023-08-08T03:18:53;22.67;;;21.53;;
39222;SDS011;24936;46.328;11.026;2023-08-08T03:21:18;21.37;;;20.30;;
39222;SDS011;24936;46.328;11.026;2023-08-08T03:23:44;16.43;;;15.63;;
39222;SDS011;24936;46.328;11.026;2023-08-08T03:26:09;12.77;;;12.18;;
39222;SDS011;24936;46.328;11.026;2023-08-08T03:28:35;19.60;;;18.60;;
39222;SDS011;24936;46.328;11.026;2023-08-08T03:31:00;28.83;;;27.33;;
39222;SDS011;24936;46.328;11.026;2023-08-08T03:33:28;50.03;;;47.22;;
39222;SDS011;24936;46.328;11.026;2023-08-08T03:35:53;42.73;;;40.37;;
39222;SDS011;24936;46.328;11.026;2023-08-08T03:38:19;43.63;;;41.23;;
39222;SDS011;24936;46.328;11.026;2023-08-08T03:40:44;38.90;;;36.60;;
39222;SDS011;24936;46.328;11.026;2023-08-08T03:43:09;23.67;;;22.47;;
39222;SDS011;24936;46.328;11.026;2023-08-08T03:45:35;43.43;;;41.03;;
39222;SDS011;24936;46.328;11.026;2023-08-08T03:48:00;39.27;;;37.17;;
39222;SDS011;24936;46.328;11.026;2023-08-08T03:50:25;22.67;;;21.53;;
39222;SDS011;24936;46.328;11.026;2023-08-08T03:52:51;14.97;;;14.20;;
39222;SDS011;24936;46.328;11.026;2023-08-08T03:55:17;15.02;;;14.27;;
39222;SDS011;24936;46.328;11.026;2023-08-08T03:57:43;18.87;;;17.93;;
39222;SDS011;24936;46.328;11.026;2023-08-08T04:00:09;16.10;;;15.30;;
39222;SDS011;24936;46.328;11.026;2023-08-08T04:02:36;16.65;;;15.88;;
39222;SDS011;24936;46.328;11.026;2023-08-08T04:05:01;18.73;;;17.80;;
39222;SDS011;24936;46.328;11.026;2023-08-08T04:07:27;25.55;;;24.20;;
39222;SDS011;24936;46.328;11.026;2023-08-08T04:09:52;40.10;;;37.90;;
39222;SDS011;24936;46.328;11.026;2023-08-08T04:12:18;35.20;;;33.33;;
39222;SDS011;24936;46.328;11.026;2023-08-08T04:14:43;27.27;;;25.83;;
39222;SDS011;24936;46.328;11.026;2023-08-08T04:17:09;21.67;;;20.60;;
39222;SDS011;24936;46.328;11.026;2023-08-08T04:19:34;24.93;;;23.70;;
39222;SDS011;24936;46.328;11.026;2023-08-08T04:21:59;20.53;;;19.53;;
39222;SDS011;24936;46.328;11.026;2023-08-08T04:24:25;26.23;;;24.87;;
39222;SDS011;24936;46.328;11.026;2023-08-08T04:26:50;18.93;;;18.00;;
39222;SDS011;24936;46.328;11.026;2023-08-08T04:29:16;22.33;;;21.23;;
39222;SDS011;24936;46.328;11.026;2023-08-08T04:31:41;20.43;;;19.40;;
39222;SDS011;24936;46.328;11.026;2023-08-08T04:34:06;20.37;;;19.23;;
39222;SDS011;24936;46.328;11.026;2023-08-08T04:36:32;17.67;;;16.83;;
39222;SDS011;24936;46.328;11.026;2023-08-08T04:38:58;16.88;;;16.08;;
39222;SDS011;24936;46.328;11.026;2023-08-08T04:41:23;17.57;;;16.70;;
39222;SDS011;24936;46.328;11.026;2023-08-08T04:43:48;18.23;;;17.37;;
39222;SDS011;24936;46.328;11.026;2023-08-08T04:46:14;19.87;;;18.87;;
39222;SDS011;24936;46.328;11.026;2023-08-08T04:48:39;14.37;;;13.70;;
39222;SDS011;24936;46.328;11.026;2023-08-08T04:51:05;26.23;;;24.83;;
39222;SDS011;24936;46.328;11.026;2023-08-08T04:53:31;32.30;;;30.50;;
39222;SDS011;24936;46.328;11.026;2023-08-08T04:55:56;16.40;;;15.60;;
39222;SDS011;24936;46.328;11.026;2023-08-08T04:58:21;14.03;;;13.33;;
39222;SDS011;24936;46.328;11.026;2023-08-08T05:00:47;16.90;;;16.10;;
39222;SDS011;24936;46.328;11.026;2023-08-08T05:03:12;21.40;;;20.30;;
39222;SDS011;24936;46.328;11.026;2023-08-08T05:05:38;27.33;;;25.88;;
39222;SDS011;24936;46.328;11.026;2023-08-08T05:08:03;31.03;;;29.27;;
39222;SDS011;24936;46.328;11.026;2023-08-08T05:10:29;17.40;;;16.33;;
39222;SDS011;24936;46.328;11.026;2023-08-08T05:12:56;84.55;;;79.32;;
39222;SDS011;24936;46.328;11.026;2023-08-08T05:15:22;27.27;;;25.77;;
39222;SDS011;24936;46.328;11.026;2023-08-08T05:17:47;16.03;;;15.23;;
39222;SDS011;24936;46.328;11.026;2023-08-08T05:20:13;15.27;;;14.57;;
39222;SDS011;24936;46.328;11.026;2023-08-08T05:22:38;15.40;;;14.70;;
39222;SDS011;24936;46.328;11.026;2023-08-08T05:25:04;17.77;;;16.90;;
39222;SDS011;24936;46.328;11.026;2023-08-08T05:27:29;22.05;;;20.95;;
39222;SDS011;24936;46.328;11.026;2023-08-08T05:29:55;40.20;;;37.97;;
39222;SDS011;24936;46.328;11.026;2023-08-08T05:32:20;47.37;;;44.70;;
39222;SDS011;24936;46.328;11.026;2023-08-08T05:34:46;47.00;;;44.40;;
39222;SDS011;24936;46.328;11.026;2023-08-08T05:37:11;52.95;;;49.97;;
39222;SDS011;24936;46.328;11.026;2023-08-08T05:39:37;57.37;;;54.10;;
39222;SDS011;24936;46.328;11.026;2023-08-08T05:42:02;58.03;;;54.77;;
39222;SDS011;24936;46.328;11.026;2023-08-08T05:44:28;50.13;;;47.23;;
39222;SDS011;24936;46.328;11.026;2023-08-08T05:46:53;59.17;;;55.77;;
39222;SDS011;24936;46.328;11.026;2023-08-08T05:49:18;43.73;;;41.27;;
39222;SDS011;24936;46.328;11.026;2023-08-08T05:51:44;31.93;;;30.23;;
39222;SDS011;24936;46.328;11.026;2023-08-08T05:54:09;26.97;;;25.53;;
39222;SDS011;24936;46.328;11.026;2023-08-08T05:56:36;24.38;;;23.05;;
39222;SDS011;24936;46.328;11.026;2023-08-08T05:59:02;15.75;;;15.05;;
39222;SDS011;24936;46.328;11.026;2023-08-08T06:01:28;45.20;;;42.67;;
39222;SDS011;24936;46.328;11.026;2023-08-08T06:03:54;35.10;;;33.20;;
39222;SDS011;24936;46.328;11.026;2023-08-08T06:06:20;19.33;;;18.43;;
39222;SDS011;24936;46.328;11.026;2023-08-08T06:08:45;12.83;;;12.23;;
39222;SDS011;24936;46.328;11.026;2023-08-08T06:11:10;19.37;;;18.27;;
39222;SDS011;24936;46.328;11.026;2023-08-08T06:13:36;9.67;;;9.07;;
39222;SDS011;24936;46.328;11.026;2023-08-08T06:16:02;17.60;;;15.88;;
39222;SDS011;24936;46.328;11.026;2023-08-08T06:18:31;7.40;;;7.03;;
39222;SDS011;24936;46.328;11.026;2023-08-08T06:21:00;8.75;;;8.35;;
39222;SDS011;24936;46.328;11.026;2023-08-08T06:23:25;7.93;;;7.63;;
39222;SDS011;24936;46.328;11.026;2023-08-08T06:25:51;8.53;;;8.20;;
39222;SDS011;24936;46.328;11.026;2023-08-08T06:28:16;8.13;;;7.83;;
39222;SDS011;24936;46.328;11.026;2023-08-08T06:30:42;8.27;;;7.87;;
39222;SDS011;24936;46.328;11.026;2023-08-08T06:33:07;10.87;;;10.37;;
39222;SDS011;24936;46.328;11.026;2023-08-08T06:35:33;8.48;;;8.15;;
39222;SDS011;24936;46.328;11.026;2023-08-08T06:37:59;8.63;;;8.23;;
39222;SDS011;24936;46.328;11.026;2023-08-08T06:40:24;7.47;;;7.18;;
39222;SDS011;24936;46.328;11.026;2023-08-08T06:42:50;9.00;;;8.50;;
39222;SDS011;24936;46.328;11.026;2023-08-08T06:45:15;6.93;;;6.63;;
39222;SDS011;24936;46.328;11.026;2023-08-08T06:47:41;6.32;;;6.00;;
39222;SDS011;24936;46.328;11.026;2023-08-08T06:50:06;8.32;;;7.93;;
39222;SDS011;24936;46.328;11.026;2023-08-08T06:52:32;5.70;;;5.43;;
39222;SDS011;24936;46.328;11.026;2023-08-08T06:54:57;5.18;;;4.97;;
39222;SDS011;24936;46.328;11.026;2023-08-08T06:57:23;8.63;;;8.23;;
39222;SDS011;24936;46.328;11.026;2023-08-08T06:59:48;10.25;;;9.65;;
39222;SDS011;24936;46.328;11.026;2023-08-08T07:02:16;11.63;;;11.13;;
39222;SDS011;24936;46.328;11.026;2023-08-08T07:07:07;7.05;;;6.75;;
39222;SDS011;24936;46.328;11.026;2023-08-08T07:09:33;6.00;;;5.70;;
39222;SDS011;24936;46.328;11.026;2023-08-08T07:11:58;6.40;;;6.05;;
39222;SDS011;24936;46.328;11.026;2023-08-08T07:14:24;5.60;;;5.40;;
39222;SDS011;24936;46.328;11.026;2023-08-08T07:16:49;10.55;;;10.00;;
39222;SDS011;24936;46.328;11.026;2023-08-08T07:19:15;21.65;;;13.88;;
39222;SDS011;24936;46.328;11.026;2023-08-08T07:21:40;7.10;;;6.80;;
39222;SDS011;24936;46.328;11.026;2023-08-08T07:24:06;11.10;;;10.18;;
39222;SDS011;24936;46.328;11.026;2023-08-08T07:26:32;5.47;;;5.28;;
39222;SDS011;24936;46.328;11.026;2023-08-08T07:28:57;45.42;;;12.02;;
39222;SDS011;24936;46.328;11.026;2023-08-08T07:31:23;10.07;;;9.17;;
39222;SDS011;24936;46.328;11.026;2023-08-08T07:33:48;9.52;;;9.07;;
39222;SDS011;24936;46.328;11.026;2023-08-08T07:36:14;10.38;;;9.88;;
39222;SDS011;24936;46.328;11.026;2023-08-08T07:38:39;7.82;;;7.53;;
39222;SDS011;24936;46.328;11.026;2023-08-08T07:41:05;7.00;;;6.70;;
39222;SDS011;24936;46.328;11.026;2023-08-08T07:43:30;13.20;;;8.27;;
39222;SDS011;24936;46.328;11.026;2023-08-08T07:45:58;7.07;;;6.53;;
39222;SDS011;24936;46.328;11.026;2023-08-08T07:48:24;32.35;;;11.10;;
39222;SDS011;24936;46.328;11.026;2023-08-08T07:53:14;9.95;;;9.35;;
39222;SDS011;24936;46.328;11.026;2023-08-08T07:55:40;10.32;;;9.85;;
39222;SDS011;24936;46.328;11.026;2023-08-08T08:00:30;11.57;;;10.65;;
39222;SDS011;24936;46.328;11.026;2023-08-08T08:02:55;19.02;;;15.85;;
39222;SDS011;24936;46.328;11.026;2023-08-08T08:05:21;9.30;;;8.88;;
39222;SDS011;24936;46.328;11.026;2023-08-08T08:07:46;18.38;;;17.50;;
39222;SDS011;24936;46.328;11.026;2023-08-08T08:12:38;19.40;;;18.38;;
39222;SDS011;24936;46.328;11.026;2023-08-08T08:15:04;18.25;;;17.25;;
39222;SDS011;24936;46.328;11.026;2023-08-08T08:19:56;23.83;;;22.52;;
39222;SDS011;24936;46.328;11.026;2023-08-08T08:24:46;31.42;;;29.73;;
39222;SDS011;24936;46.328;11.026;2023-08-08T08:29:38;26.50;;;25.13;;
39222;SDS011;24936;46.328;11.026;2023-08-08T08:32:04;25.95;;;24.55;;
39222;SDS011;24936;46.328;11.026;2023-08-08T08:36:55;23.25;;;22.05;;
39222;SDS011;24936;46.328;11.026;2023-08-08T08:41:48;20.00;;;18.98;;
39222;SDS011;24936;46.328;11.026;2023-08-08T08:44:16;19.45;;;18.45;;
39222;SDS011;24936;46.328;11.026;2023-08-08T08:46:42;38.80;;;36.70;;
39222;SDS011;24936;46.328;11.026;2023-08-08T08:51:35;25.08;;;23.73;;
39222;SDS011;24936;46.328;11.026;2023-08-08T08:54:01;54.83;;;51.60;;
39222;SDS011;24936;46.328;11.026;2023-08-08T08:58:52;30.75;;;29.13;;
39222;SDS011;24936;46.328;11.026;2023-08-08T09:03:44;21.83;;;20.70;;
39222;SDS011;24936;46.328;11.026;2023-08-08T09:06:11;81.72;;;76.55;;
39222;SDS011;24936;46.328;11.026;2023-08-08T09:08:37;62.95;;;59.15;;
39222;SDS011;24936;46.328;11.026;2023-08-08T09:11:03;73.13;;;68.68;;
39222;SDS011;24936;46.328;11.026;2023-08-08T09:16:01;42.85;;;40.38;;
39222;SDS011;24936;46.328;11.026;2023-08-08T09:18:26;54.47;;;51.40;;
39222;SDS011;24936;46.328;11.026;2023-08-08T09:20:51;28.65;;;27.15;;
39222;SDS011;24936;46.328;11.026;2023-08-08T09:23:17;47.72;;;45.10;;
39222;SDS011;24936;46.328;11.026;2023-08-08T09:25:42;15.60;;;14.90;;
39222;SDS011;24936;46.328;11.026;2023-08-08T09:28:08;15.38;;;14.68;;
39222;SDS011;24936;46.328;11.026;2023-08-08T09:30:35;13.65;;;13.00;;
39222;SDS011;24936;46.328;11.026;2023-08-08T09:33:01;14.38;;;13.70;;
39222;SDS011;24936;46.328;11.026;2023-08-08T09:35:28;11.00;;;10.50;;
39222;SDS011;24936;46.328;11.026;2023-08-08T09:37:54;15.98;;;15.25;;
39222;SDS011;24936;46.328;11.026;2023-08-08T09:40:20;10.95;;;10.45;;
39222;SDS011;24936;46.328;11.026;2023-08-08T09:42:47;11.80;;;11.10;;
39222;SDS011;24936;46.328;11.026;2023-08-08T09:45:13;11.55;;;11.02;;
39222;SDS011;24936;46.328;11.026;2023-08-08T09:47:39;24.02;;;22.83;;
39222;SDS011;24936;46.328;11.026;2023-08-08T09:50:04;18.73;;;17.83;;
39222;SDS011;24936;46.328;11.026;2023-08-08T09:52:31;10.00;;;9.57;;
39222;SDS011;24936;46.328;11.026;2023-08-08T09:54:59;26.45;;;25.08;;
39222;SDS011;24936;46.328;11.026;2023-08-08T09:57:25;23.75;;;22.55;;
39222;SDS011;24936;46.328;11.026;2023-08-08T09:59:51;19.50;;;18.52;;
39222;SDS011;24936;46.328;11.026;2023-08-08T10:02:17;56.03;;;52.88;;
39222;SDS011;24936;46.328;11.026;2023-08-08T10:04:45;41.35;;;39.10;;
39222;SDS011;24936;46.328;11.026;2023-08-08T10:07:11;72.32;;;68.15;;
39222;SDS011;24936;46.328;11.026;2023-08-08T10:09:36;32.50;;;30.80;;
39222;SDS011;24936;46.328;11.026;2023-08-08T10:12:03;48.40;;;45.78;;
39222;SDS011;24936;46.328;11.026;2023-08-08T10:14:32;60.15;;;56.80;;
39222;SDS011;24936;46.328;11.026;2023-08-08T10:17:05;27.52;;;26.13;;
39222;SDS011;24936;46.328;11.026;2023-08-08T10:19:31;57.22;;;54.05;;
39222;SDS011;24936;46.328;11.026;2023-08-08T10:21:58;29.25;;;27.60;;
39222;SDS011;24936;46.328;11.026;2023-08-08T10:24:32;17.40;;;16.55;;
39222;SDS011;24936;46.328;11.026;2023-08-08T10:26:59;17.23;;;16.42;;
39222;SDS011;24936;46.328;11.026;2023-08-08T10:29:27;11.57;;;11.07;;
39222;SDS011;24936;46.328;11.026;2023-08-08T10:34:27;13.38;;;12.77;;
39222;SDS011;24936;46.328;11.026;2023-08-08T10:37:03;21.33;;;20.23;;
39222;SDS011;24936;46.328;11.026;2023-08-08T10:39:58;15.95;;;15.23;;
39222;SDS011;24936;46.328;11.026;2023-08-08T10:42:25;18.00;;;17.13;;
39222;SDS011;24936;46.328;11.026;2023-08-08T10:44:53;14.15;;;13.50;;
39222;SDS011;24936;46.328;11.026;2023-08-08T10:47:21;17.83;;;16.98;;
39222;SDS011;24936;46.328;11.026;2023-08-08T10:49:56;25.95;;;24.65;;
39222;SDS011;24936;46.328;11.026;2023-08-08T10:55:25;23.13;;;21.92;;
39222;SDS011;24936;46.328;11.026;2023-08-08T10:57:57;26.38;;;25.00;;
39222;SDS011;24936;46.328;11.026;2023-08-08T11:00:24;25.13;;;23.83;;
39222;SDS011;24936;46.328;11.026;2023-08-08T11:02:51;21.67;;;20.60;;
39222;SDS011;24936;46.328;11.026;2023-08-08T11:05:19;23.50;;;22.25;;
39222;SDS011;24936;46.328;11.026;2023-08-08T11:07:45;15.10;;;14.35;;
39222;SDS011;24936;46.328;11.026;2023-08-08T11:10:10;15.05;;;14.35;;
39222;SDS011;24936;46.328;11.026;2023-08-08T11:12:36;19.38;;;18.45;;
39222;SDS011;24936;46.328;11.026;2023-08-08T11:15:01;16.13;;;15.35;;
39222;SDS011;24936;46.328;11.026;2023-08-08T11:17:27;17.98;;;17.13;;
39222;SDS011;24936;46.328;11.026;2023-08-08T11:19:53;21.17;;;20.13;;
39222;SDS011;24936;46.328;11.026;2023-08-08T11:22:20;20.45;;;19.45;;
39222;SDS011;24936;46.328;11.026;2023-08-08T11:24:46;7.18;;;6.88;;
39222;SDS011;24936;46.328;11.026;2023-08-08T11:27:11;21.40;;;20.33;;
39222;SDS011;24936;46.328;11.026;2023-08-08T11:29:37;16.13;;;15.40;;
39222;SDS011;24936;46.328;11.026;2023-08-08T11:32:02;43.08;;;40.78;;
39222;SDS011;24936;46.328;11.026;2023-08-08T11:34:31;12.73;;;12.15;;
39222;SDS011;24936;46.328;11.026;2023-08-08T11:36:59;22.02;;;20.90;;
39222;SDS011;24936;46.328;11.026;2023-08-08T11:39:25;16.52;;;15.75;;
39222;SDS011;24936;46.328;11.026;2023-08-08T11:41:52;21.98;;;20.88;;
39222;SDS011;24936;46.328;11.026;2023-08-08T11:44:18;17.58;;;16.73;;
39222;SDS011;24936;46.328;11.026;2023-08-08T11:46:47;16.83;;;15.93;;
39222;SDS011;24936;46.328;11.026;2023-08-08T11:49:14;12.25;;;11.73;;
39222;SDS011;24936;46.328;11.026;2023-08-08T11:51:42;16.55;;;15.75;;
39222;SDS011;24936;46.328;11.026;2023-08-08T11:54:08;12.30;;;11.75;;
39222;SDS011;24936;46.328;11.026;2023-08-08T11:56:34;9.35;;;8.95;;
39222;SDS011;24936;46.328;11.026;2023-08-08T11:59:00;12.40;;;11.90;;
39222;SDS011;24936;46.328;11.026;2023-08-08T12:01:27;14.57;;;13.82;;
39222;SDS011;24936;46.328;11.026;2023-08-08T12:06:21;25.23;;;23.92;;
39222;SDS011;24936;46.328;11.026;2023-08-08T12:08:47;26.10;;;24.80;;
39222;SDS011;24936;46.328;11.026;2023-08-08T12:11:13;19.60;;;18.58;;
39222;SDS011;24936;46.328;11.026;2023-08-08T12:13:41;20.63;;;19.52;;
39222;SDS011;24936;46.328;11.026;2023-08-08T12:16:11;18.13;;;17.23;;
39222;SDS011;24936;46.328;11.026;2023-08-08T12:18:38;13.35;;;12.75;;
39222;SDS011;24936;46.328;11.026;2023-08-08T12:21:05;26.30;;;24.95;;
39222;SDS011;24936;46.328;11.026;2023-08-08T12:23:31;18.23;;;17.35;;
39222;SDS011;24936;46.328;11.026;2023-08-08T12:25:58;13.50;;;12.90;;
39222;SDS011;24936;46.328;11.026;2023-08-08T12:28:24;8.15;;;7.82;;
39222;SDS011;24936;46.328;11.026;2023-08-08T12:30:50;13.45;;;12.82;;
39222;SDS011;24936;46.328;11.026;2023-08-08T12:33:16;13.95;;;13.25;;
39222;SDS011;24936;46.328;11.026;2023-08-08T12:35:41;16.40;;;15.60;;
39222;SDS011;24936;46.328;11.026;2023-08-08T12:38:07;12.73;;;12.13;;
39222;SDS011;24936;46.328;11.026;2023-08-08T12:40:32;13.15;;;12.52;;
39222;SDS011;24936;46.328;11.026;2023-08-08T12:42:59;17.08;;;16.27;;
39222;SDS011;24936;46.328;11.026;2023-08-08T12:45:24;10.93;;;10.48;;
39222;SDS011;24936;46.328;11.026;2023-08-08T12:47:50;17.38;;;16.55;;
39222;SDS011;24936;46.328;11.026;2023-08-08T12:50:15;19.52;;;18.58;;
39222;SDS011;24936;46.328;11.026;2023-08-08T12:52:41;12.88;;;12.27;;
39222;SDS011;24936;46.328;11.026;2023-08-08T12:55:06;17.70;;;16.90;;
39222;SDS011;24936;46.328;11.026;2023-08-08T12:57:33;12.00;;;11.50;;
39222;SDS011;24936;46.328;11.026;2023-08-08T12:59:58;9.15;;;8.75;;
39222;SDS011;24936;46.328;11.026;2023-08-08T13:02:24;17.25;;;16.45;;
39222;SDS011;24936;46.328;11.026;2023-08-08T13:04:49;10.77;;;10.35;;
39222;SDS011;24936;46.328;11.026;2023-08-08T13:07:15;18.60;;;17.70;;
39222;SDS011;24936;46.328;11.026;2023-08-08T13:09:41;15.25;;;14.55;;
39222;SDS011;24936;46.328;11.026;2023-08-08T13:12:07;16.48;;;15.70;;
39222;SDS011;24936;46.328;11.026;2023-08-08T13:14:34;13.75;;;13.07;;
39222;SDS011;24936;46.328;11.026;2023-08-08T13:16:59;18.63;;;17.73;;
39222;SDS011;24936;46.328;11.026;2023-08-08T13:19:25;17.02;;;16.23;;
39222;SDS011;24936;46.328;11.026;2023-08-08T13:21:51;18.17;;;17.27;;
39222;SDS011;24936;46.328;11.026;2023-08-08T13:24:17;22.90;;;21.75;;
39222;SDS011;24936;46.328;11.026;2023-08-08T13:26:43;20.30;;;19.27;;
39222;SDS011;24936;46.328;11.026;2023-08-08T13:29:08;28.08;;;26.58;;
39222;SDS011;24936;46.328;11.026;2023-08-08T13:31:34;21.02;;;19.95;;
39222;SDS011;24936;46.328;11.026;2023-08-08T13:34:00;26.73;;;25.33;;
39222;SDS011;24936;46.328;11.026;2023-08-08T13:36:25;16.38;;;15.55;;
39222;SDS011;24936;46.328;11.026;2023-08-08T13:38:51;19.52;;;18.42;;
39222;SDS011;24936;46.328;11.026;2023-08-08T13:41:16;20.17;;;19.13;;
39222;SDS011;24936;46.328;11.026;2023-08-08T13:43:42;21.48;;;20.38;;
39222;SDS011;24936;46.328;11.026;2023-08-08T13:46:07;30.42;;;28.80;;
39222;SDS011;24936;46.328;11.026;2023-08-08T13:48:35;27.48;;;26.02;;
39222;SDS011;24936;46.328;11.026;2023-08-08T13:51:01;22.08;;;20.98;;
39222;SDS011;24936;46.328;11.026;2023-08-08T13:53:26;22.52;;;21.40;;
39222;SDS011;24936;46.328;11.026;2023-08-08T13:55:52;11.25;;;10.75;;
39222;SDS011;24936;46.328;11.026;2023-08-08T13:58:18;36.78;;;34.72;;
39222;SDS011;24936;46.328;11.026;2023-08-08T14:00:46;28.45;;;27.00;;
39222;SDS011;24936;46.328;11.026;2023-08-08T14:03:12;23.70;;;22.50;;
39222;SDS011;24936;46.328;11.026;2023-08-08T14:05:38;18.92;;;17.95;;
39222;SDS011;24936;46.328;11.026;2023-08-08T14:08:04;27.13;;;25.70;;
39222;SDS011;24936;46.328;11.026;2023-08-08T14:10:30;25.48;;;24.15;;
39222;SDS011;24936;46.328;11.026;2023-08-08T14:12:55;30.95;;;29.27;;
39222;SDS011;24936;46.328;11.026;2023-08-08T14:15:21;18.88;;;17.95;;
39222;SDS011;24936;46.328;11.026;2023-08-08T14:17:46;20.73;;;19.73;;
39222;SDS011;24936;46.328;11.026;2023-08-08T14:20:12;19.52;;;18.55;;
39222;SDS011;24936;46.328;11.026;2023-08-08T14:22:37;31.25;;;29.58;;
39222;SDS011;24936;46.328;11.026;2023-08-08T14:25:03;22.30;;;21.20;;
39222;SDS011;24936;46.328;11.026;2023-08-08T14:27:31;54.42;;;51.47;;
39222;SDS011;24936;46.328;11.026;2023-08-08T14:29:56;54.22;;;51.20;;
39222;SDS011;24936;46.328;11.026;2023-08-08T14:32:22;55.92;;;52.92;;
39222;SDS011;24936;46.328;11.026;2023-08-08T14:34:47;31.67;;;30.08;;
39222;SDS011;24936;46.328;11.026;2023-08-08T14:37:13;15.93;;;15.23;;
39222;SDS011;24936;46.328;11.026;2023-08-08T14:39:38;50.00;;;46.70;;
39222;SDS011;24936;46.328;11.026;2023-08-08T14:42:05;22.05;;;20.95;;
39222;SDS011;24936;46.328;11.026;2023-08-08T14:44:30;22.45;;;21.30;;
39222;SDS011;24936;46.328;11.026;2023-08-08T14:46:56;23.75;;;22.55;;